sensor_id;sensor_type;location;lat;lon;timestamp;pressure;altitude;pressure_sealevel;temperature;humidity
56042;BME280;48756;41.374;2.066;2023-05-19T00:01:18;101171.75;;;17.69;69.69
56042;BME280;48756;41.374;2.066;2023-05-19T00:06:18;101174.63;;;17.60;69.53
56042;BME280;48756;41.374;2.066;2023-05-19T00:08:49;101174.34;;;17.70;69.79
56042;BME280;48756;41.374;2.066;2023-05-19T00:11:17;101168.50;;;17.59;69.97
56042;BME280;48756;41.374;2.066;2023-05-19T00:13:42;101164.44;;;17.77;69.77
56042;BME280;48756;41.374;2.066;2023-05-19T00:16:12;101172.34;;;17.49;70.00
56042;BME280;48756;41.374;2.066;2023-05-19T00:18:38;101165.03;;;17.57;69.48
56042;BME280;48756;41.374;2.066;2023-05-19T00:21:04;101153.34;;;17.67;69.42
56042;BME280;48756;41.374;2.066;2023-05-19T00:23:30;101158.75;;;17.61;69.14
56042;BME280;48756;41.374;2.066;2023-05-19T00:25:55;101159.53;;;17.37;69.67
56042;BME280;48756;41.374;2.066;2023-05-19T00:28:21;101153.19;;;17.44;69.46
56042;BME280;48756;41.374;2.066;2023-05-19T00:30:46;101144.63;;;17.36;70.77
56042;BME280;48756;41.374;2.066;2023-05-19T00:33:12;101156.53;;;17.21;70.36
56042;BME280;48756;41.374;2.066;2023-05-19T00:35:37;101145.75;;;17.29;69.98
56042;BME280;48756;41.374;2.066;2023-05-19T00:38:04;101139.16;;;17.42;68.90
56042;BME280;48756;41.374;2.066;2023-05-19T00:40:30;101143.47;;;17.17;70.64
56042;BME280;48756;41.374;2.066;2023-05-19T00:42:58;101133.38;;;17.31;70.18
56042;BME280;48756;41.374;2.066;2023-05-19T00:45:24;101139.16;;;17.42;69.41
56042;BME280;48756;41.374;2.066;2023-05-19T00:47:51;101140.69;;;17.51;68.52
56042;BME280;48756;41.374;2.066;2023-05-19T00:50:17;101143.50;;;17.44;68.83
56042;BME280;48756;41.374;2.066;2023-05-19T00:52:42;101136.63;;;17.39;68.79
56042;BME280;48756;41.374;2.066;2023-05-19T00:55:08;101145.13;;;17.21;69.12
56042;BME280;48756;41.374;2.066;2023-05-19T00:57:33;101133.78;;;17.17;69.28
56042;BME280;48756;41.374;2.066;2023-05-19T00:59:59;101136.16;;;16.98;69.93
56042;BME280;48756;41.374;2.066;2023-05-19T01:02:25;101124.31;;;17.11;70.13
56042;BME280;48756;41.374;2.066;2023-05-19T01:04:53;101125.00;;;17.18;69.64
56042;BME280;48756;41.374;2.066;2023-05-19T01:07:21;101128.47;;;17.19;70.08
56042;BME280;48756;41.374;2.066;2023-05-19T01:09:47;101122.03;;;17.29;68.85
56042;BME280;48756;41.374;2.066;2023-05-19T01:12:13;101121.84;;;17.35;68.67
56042;BME280;48756;41.374;2.066;2023-05-19T01:14:38;101120.28;;;17.29;68.71
56042;BME280;48756;41.374;2.066;2023-05-19T01:17:08;101116.56;;;17.35;69.41
56042;BME280;48756;41.374;2.066;2023-05-19T01:30:06;101101.53;;;17.38;69.06
56042;BME280;48756;41.374;2.066;2023-05-19T01:32:32;101095.19;;;17.45;68.37
56042;BME280;48756;41.374;2.066;2023-05-19T01:34:58;101092.63;;;17.42;69.15
56042;BME280;48756;41.374;2.066;2023-05-19T01:37:24;101088.94;;;17.48;68.73
56042;BME280;48756;41.374;2.066;2023-05-19T01:39:50;101086.66;;;17.64;68.07
56042;BME280;48756;41.374;2.066;2023-05-19T01:42:16;101080.47;;;17.65;67.16
56042;BME280;48756;41.374;2.066;2023-05-19T01:44:42;101086.47;;;17.42;68.89
56042;BME280;48756;41.374;2.066;2023-05-19T01:47:08;101080.38;;;17.69;67.31
56042;BME280;48756;41.374;2.066;2023-05-19T01:49:34;101075.19;;;17.65;66.98
56042;BME280;48756;41.374;2.066;2023-05-19T01:51:59;101075.19;;;17.65;67.34
56042;BME280;48756;41.374;2.066;2023-05-19T01:54:25;101069.47;;;17.52;67.81
56042;BME280;48756;41.374;2.066;2023-05-19T01:59:21;101071.38;;;17.49;67.87
56042;BME280;48756;41.374;2.066;2023-05-19T02:07:08;101080.19;;;17.48;68.00
56042;BME280;48756;41.374;2.066;2023-05-19T02:09:37;101075.41;;;17.04;70.21
56042;BME280;48756;41.374;2.066;2023-05-19T02:12:07;101083.25;;;17.06;71.04
56042;BME280;48756;41.374;2.066;2023-05-19T02:14:39;101080.63;;;17.06;70.25
56042;BME280;48756;41.374;2.066;2023-05-19T02:17:05;101073.81;;;16.99;70.35
56042;BME280;48756;41.374;2.066;2023-05-19T02:19:34;101068.56;;;16.99;70.87
56042;BME280;48756;41.374;2.066;2023-05-19T02:21:59;101061.72;;;16.92;71.50
56042;BME280;48756;41.374;2.066;2023-05-19T02:24:25;101064.81;;;17.06;70.87
56042;BME280;48756;41.374;2.066;2023-05-19T02:26:50;101074.94;;;16.90;72.55
56042;BME280;48756;41.374;2.066;2023-05-19T02:29:16;101071.53;;;16.87;73.24
56042;BME280;48756;41.374;2.066;2023-05-19T02:31:42;101066.69;;;17.02;71.46
56042;BME280;48756;41.374;2.066;2023-05-19T02:34:07;101066.63;;;17.04;72.29
56042;BME280;48756;41.374;2.066;2023-05-19T02:36:33;101061.19;;;17.10;71.08
56042;BME280;48756;41.374;2.066;2023-05-19T02:39:02;101062.44;;;16.98;71.82
56042;BME280;48756;41.374;2.066;2023-05-19T02:41:27;101061.50;;;16.70;73.05
56042;BME280;48756;41.374;2.066;2023-05-19T02:43:53;101063.78;;;16.82;73.73
56042;BME280;48756;41.374;2.066;2023-05-19T02:46:18;101060.41;;;17.06;71.97
56042;BME280;48756;41.374;2.066;2023-05-19T02:48:44;101058.28;;;17.18;71.48
56042;BME280;48756;41.374;2.066;2023-05-19T02:51:09;101057.72;;;17.08;72.01
56042;BME280;48756;41.374;2.066;2023-05-19T02:53:35;101058.16;;;17.22;71.91
56042;BME280;48756;41.374;2.066;2023-05-19T02:56:00;101060.94;;;16.59;73.15
56042;BME280;48756;41.374;2.066;2023-05-19T02:58:28;101063.03;;;16.78;71.85
56042;BME280;48756;41.374;2.066;2023-05-19T03:00:54;101065.06;;;16.69;72.65
56042;BME280;48756;41.374;2.066;2023-05-19T03:03:20;101065.75;;;16.75;71.43
56042;BME280;48756;41.374;2.066;2023-05-19T03:05:45;101060.25;;;16.83;70.22
56042;BME280;48756;41.374;2.066;2023-05-19T03:08:11;101063.38;;;16.66;70.64
56042;BME280;48756;41.374;2.066;2023-05-19T03:10:37;101061.72;;;16.62;71.15
56042;BME280;48756;41.374;2.066;2023-05-19T03:13:02;101057.69;;;16.49;70.59
56042;BME280;48756;41.374;2.066;2023-05-19T03:15:28;101057.84;;;16.44;70.38
56042;BME280;48756;41.374;2.066;2023-05-19T03:17:53;101054.91;;;16.55;69.12
56042;BME280;48756;41.374;2.066;2023-05-19T03:20:19;101050.75;;;16.46;68.65
56042;BME280;48756;41.374;2.066;2023-05-19T03:22:44;101047.34;;;16.75;67.77
56042;BME280;48756;41.374;2.066;2023-05-19T03:25:10;101045.78;;;16.68;68.06
56042;BME280;48756;41.374;2.066;2023-05-19T03:27:38;101047.19;;;16.80;68.16
56042;BME280;48756;41.374;2.066;2023-05-19T03:30:04;101038.25;;;16.86;68.74
56042;BME280;48756;41.374;2.066;2023-05-19T03:32:29;101036.66;;;16.80;69.15
56042;BME280;48756;41.374;2.066;2023-05-19T03:34:56;101038.03;;;16.62;70.36
56042;BME280;48756;41.374;2.066;2023-05-19T03:37:22;101034.78;;;16.54;71.36
56042;BME280;48756;41.374;2.066;2023-05-19T03:39:47;101033.00;;;16.54;71.03
56042;BME280;48756;41.374;2.066;2023-05-19T03:42:12;101023.25;;;16.58;71.14
56042;BME280;48756;41.374;2.066;2023-05-19T03:44:38;101025.16;;;16.53;70.46
56042;BME280;48756;41.374;2.066;2023-05-19T03:47:03;101025.94;;;16.57;70.14
56042;BME280;48756;41.374;2.066;2023-05-19T03:49:29;101023.56;;;16.47;70.57
56042;BME280;48756;41.374;2.066;2023-05-19T03:51:54;101018.25;;;16.49;70.22
56042;BME280;48756;41.374;2.066;2023-05-19T03:54:20;101025.84;;;16.29;70.21
56042;BME280;48756;41.374;2.066;2023-05-19T03:56:46;101013.59;;;16.28;70.91
56042;BME280;48756;41.374;2.066;2023-05-19T03:59:11;101015.63;;;16.18;70.50
56042;BME280;48756;41.374;2.066;2023-05-19T04:01:37;101009.47;;;16.19;70.26
56042;BME280;48756;41.374;2.066;2023-05-19T04:04:02;101007.44;;;16.29;70.26
56042;BME280;48756;41.374;2.066;2023-05-19T04:06:28;101013.59;;;16.28;70.10
56042;BME280;48756;41.374;2.066;2023-05-19T04:08:53;101011.06;;;16.24;69.94
56042;BME280;48756;41.374;2.066;2023-05-19T04:11:18;101005.66;;;16.31;69.36
56042;BME280;48756;41.374;2.066;2023-05-19T04:13:45;101009.63;;;16.14;69.98
56042;BME280;48756;41.374;2.066;2023-05-19T04:16:10;101006.22;;;16.40;69.21
56042;BME280;48756;41.374;2.066;2023-05-19T04:18:36;101005.59;;;16.32;69.32
56042;BME280;48756;41.374;2.066;2023-05-19T04:21:01;101009.00;;;16.36;69.04
56042;BME280;48756;41.374;2.066;2023-05-19T04:23:27;101000.63;;;16.52;68.13
56042;BME280;48756;41.374;2.066;2023-05-19T04:25:52;101005.56;;;16.34;68.44
56042;BME280;48756;41.374;2.066;2023-05-19T04:28:18;101006.34;;;16.05;68.97
56042;BME280;48756;41.374;2.066;2023-05-19T04:30:43;101014.47;;;15.97;69.60
56042;BME280;48756;41.374;2.066;2023-05-19T04:33:10;101012.97;;;15.88;69.97
56042;BME280;48756;41.374;2.066;2023-05-19T04:35:36;101014.69;;;15.89;70.50
56042;BME280;48756;41.374;2.066;2023-05-19T04:38:02;101010.16;;;15.95;70.14
56042;BME280;48756;41.374;2.066;2023-05-19T04:40:27;101010.06;;;15.98;69.86
56042;BME280;48756;41.374;2.066;2023-05-19T04:42:55;101012.38;;;15.77;70.28
56042;BME280;48756;41.374;2.066;2023-05-19T04:45:21;101018.47;;;15.78;70.56
56042;BME280;48756;41.374;2.066;2023-05-19T04:47:47;101006.16;;;15.80;70.94
56042;BME280;48756;41.374;2.066;2023-05-19T04:50:12;101010.78;;;15.72;71.12
56042;BME280;48756;41.374;2.066;2023-05-19T04:52:38;101004.13;;;15.91;70.01
56042;BME280;48756;41.374;2.066;2023-05-19T04:55:04;101014.56;;;15.94;70.63
56042;BME280;48756;41.374;2.066;2023-05-19T04:57:29;101016.59;;;15.83;69.90
56042;BME280;48756;41.374;2.066;2023-05-19T04:59:55;101013.53;;;15.67;71.17
56042;BME280;48756;41.374;2.066;2023-05-19T05:02:24;101012.44;;;15.74;70.63
56042;BME280;48756;41.374;2.066;2023-05-19T05:04:51;101012.81;;;15.93;70.07
56042;BME280;48756;41.374;2.066;2023-05-19T05:07:18;101007.41;;;15.99;69.76
56042;BME280;48756;41.374;2.066;2023-05-19T05:09:44;101008.88;;;16.09;69.77
56042;BME280;48756;41.374;2.066;2023-05-19T05:12:09;101009.19;;;16.30;68.74
56042;BME280;48756;41.374;2.066;2023-05-19T05:14:35;101008.88;;;16.40;68.33
56042;BME280;48756;41.374;2.066;2023-05-19T05:17:01;101013.16;;;16.43;67.84
56042;BME280;48756;41.374;2.066;2023-05-19T05:19:26;101009.28;;;16.56;68.14
56042;BME280;48756;41.374;2.066;2023-05-19T05:21:52;101012.53;;;16.64;68.42
56042;BME280;48756;41.374;2.066;2023-05-19T05:24:17;101010.78;;;16.65;66.82
56042;BME280;48756;41.374;2.066;2023-05-19T05:26:43;101010.78;;;16.65;66.45
56042;BME280;48756;41.374;2.066;2023-05-19T05:29:08;101010.50;;;16.74;66.56
56042;BME280;48756;41.374;2.066;2023-05-19T05:31:34;101004.22;;;16.79;66.46
56042;BME280;48756;41.374;2.066;2023-05-19T05:34:01;101013.25;;;16.71;66.39
56042;BME280;48756;41.374;2.066;2023-05-19T05:36:26;101008.22;;;16.62;66.69
56042;BME280;48756;41.374;2.066;2023-05-19T05:38:51;101010.44;;;16.77;66.60
56042;BME280;48756;41.374;2.066;2023-05-19T05:41:17;101004.59;;;16.95;65.76
56042;BME280;48756;41.374;2.066;2023-05-19T05:43:42;101008.72;;;16.45;67.14
56042;BME280;48756;41.374;2.066;2023-05-19T05:46:08;101012.16;;;16.17;68.79
56042;BME280;48756;41.374;2.066;2023-05-19T05:48:33;101008.88;;;16.09;68.91
56042;BME280;48756;41.374;2.066;2023-05-19T05:50:59;101013.34;;;16.06;69.84
56042;BME280;48756;41.374;2.066;2023-05-19T05:53:25;101010.78;;;16.03;70.41
56042;BME280;48756;41.374;2.066;2023-05-19T05:55:54;101009.22;;;15.97;70.40
56042;BME280;48756;41.374;2.066;2023-05-19T05:58:19;101007.13;;;16.10;70.36
56042;BME280;48756;41.374;2.066;2023-05-19T06:00:45;101007.66;;;16.21;70.27
56042;BME280;48756;41.374;2.066;2023-05-19T06:03:12;101004.69;;;16.63;68.45
56042;BME280;48756;41.374;2.066;2023-05-19T06:05:38;101008.00;;;16.40;69.48
56042;BME280;48756;41.374;2.066;2023-05-19T06:08:04;101000.13;;;16.40;68.90
56042;BME280;48756;41.374;2.066;2023-05-19T06:10:30;100999.16;;;16.72;68.52
56042;BME280;48756;41.374;2.066;2023-05-19T06:12:55;100993.38;;;17.17;65.58
56042;BME280;48756;41.374;2.066;2023-05-19T06:15:21;100995.09;;;17.18;65.19
56042;BME280;48756;41.374;2.066;2023-05-19T06:17:46;100996.63;;;17.25;63.67
56042;BME280;48756;41.374;2.066;2023-05-19T06:20:12;100997.28;;;17.31;63.83
56042;BME280;48756;41.374;2.066;2023-05-19T06:22:37;100989.38;;;17.31;63.24
56042;BME280;48756;41.374;2.066;2023-05-19T06:25:03;100991.53;;;17.20;61.45
56042;BME280;48756;41.374;2.066;2023-05-19T06:27:29;100990.41;;;17.27;62.02
56042;BME280;48756;41.374;2.066;2023-05-19T06:29:54;100993.09;;;17.26;60.50
56042;BME280;48756;41.374;2.066;2023-05-19T06:32:19;100991.41;;;17.23;60.58
56042;BME280;48756;41.374;2.066;2023-05-19T06:34:45;100996.47;;;17.29;60.52
56042;BME280;48756;41.374;2.066;2023-05-19T06:37:10;100993.94;;;17.00;60.25
56042;BME280;48756;41.374;2.066;2023-05-19T06:39:36;100998.50;;;17.21;59.56
56042;BME280;48756;41.374;2.066;2023-05-19T06:42:02;100992.94;;;17.30;60.18
56042;BME280;48756;41.374;2.066;2023-05-19T06:44:27;100996.72;;;17.48;58.71
56042;BME280;48756;41.374;2.066;2023-05-19T06:46:53;101000.56;;;17.11;58.67
56042;BME280;48756;41.374;2.066;2023-05-19T06:49:18;100989.78;;;17.19;58.10
56042;BME280;48756;41.374;2.066;2023-05-19T06:51:44;100987.34;;;17.13;58.80
56042;BME280;48756;41.374;2.066;2023-05-19T06:54:10;100992.38;;;17.21;57.98
56042;BME280;48756;41.374;2.066;2023-05-19T06:56:37;100995.25;;;17.13;57.91
56042;BME280;48756;41.374;2.066;2023-05-19T06:59:02;100994.59;;;17.06;58.01
56042;BME280;48756;41.374;2.066;2023-05-19T07:01:28;100991.03;;;17.07;58.51
56042;BME280;48756;41.374;2.066;2023-05-19T07:03:54;100991.09;;;17.06;58.66
56042;BME280;48756;41.374;2.066;2023-05-19T07:06:21;100993.41;;;16.89;58.81
56042;BME280;48756;41.374;2.066;2023-05-19T07:08:48;100991.63;;;16.89;58.36
56042;BME280;48756;41.374;2.066;2023-05-19T07:11:13;100989.53;;;17.00;58.44
56042;BME280;48756;41.374;2.066;2023-05-19T07:13:39;100995.66;;;17.27;57.59
56042;BME280;48756;41.374;2.066;2023-05-19T07:16:04;100994.78;;;17.00;58.79
56042;BME280;48756;41.374;2.066;2023-05-19T07:18:30;100987.44;;;17.10;58.27
56042;BME280;48756;41.374;2.066;2023-05-19T07:20:56;100984.75;;;17.11;58.40
56042;BME280;48756;41.374;2.066;2023-05-19T07:23:22;100992.06;;;17.03;58.67
56042;BME280;48756;41.374;2.066;2023-05-19T07:25:48;100990.19;;;17.33;58.39
56042;BME280;48756;41.374;2.066;2023-05-19T07:28:13;100985.28;;;17.23;58.31
56042;BME280;48756;41.374;2.066;2023-05-19T07:30:38;100979.91;;;17.52;58.46
56042;BME280;48756;41.374;2.066;2023-05-19T07:33:04;100982.31;;;17.58;57.77
56042;BME280;48756;41.374;2.066;2023-05-19T07:35:30;100977.88;;;17.85;56.54
56042;BME280;48756;41.374;2.066;2023-05-19T07:37:56;100973.84;;;18.00;56.67
56042;BME280;48756;41.374;2.066;2023-05-19T07:40:21;100970.88;;;18.56;54.70
56042;BME280;48756;41.374;2.066;2023-05-19T07:42:50;100964.56;;;18.83;54.83
56042;BME280;48756;41.374;2.066;2023-05-19T07:45:15;100967.72;;;18.91;53.69
56042;BME280;48756;41.374;2.066;2023-05-19T07:47:40;100970.06;;;18.54;53.41
56042;BME280;48756;41.374;2.066;2023-05-19T07:50:06;100954.59;;;18.68;52.62
56042;BME280;48756;41.374;2.066;2023-05-19T07:52:31;100962.44;;;18.91;52.25
56042;BME280;48756;41.374;2.066;2023-05-19T07:54:57;100961.13;;;19.44;52.10
56042;BME280;48756;41.374;2.066;2023-05-19T07:57:23;100962.94;;;19.43;50.81
56042;BME280;48756;41.374;2.066;2023-05-19T07:59:48;100955.06;;;19.00;51.99
56042;BME280;48756;41.374;2.066;2023-05-19T08:02:14;100955.72;;;19.26;51.40
56042;BME280;48756;41.374;2.066;2023-05-19T08:04:39;100949.22;;;19.13;52.17
56042;BME280;48756;41.374;2.066;2023-05-19T08:07:05;100948.06;;;19.41;51.07
56042;BME280;48756;41.374;2.066;2023-05-19T08:09:30;100953.16;;;19.86;50.38
56042;BME280;48756;41.374;2.066;2023-05-19T08:11:55;100949.00;;;20.01;49.61
56042;BME280;48756;41.374;2.066;2023-05-19T08:14:21;100950.38;;;19.89;50.00
56042;BME280;48756;41.374;2.066;2023-05-19T08:16:47;100951.00;;;19.75;49.75
56042;BME280;48756;41.374;2.066;2023-05-19T08:19:12;100954.06;;;19.44;50.71
56042;BME280;48756;41.374;2.066;2023-05-19T08:21:38;100954.38;;;19.58;49.90
56042;BME280;48756;41.374;2.066;2023-05-19T08:24:03;100956.75;;;19.85;48.97
56042;BME280;48756;41.374;2.066;2023-05-19T08:26:29;100959.47;;;19.63;49.92
56042;BME280;48756;41.374;2.066;2023-05-19T08:28:54;100957.94;;;20.36;47.19
56042;BME280;48756;41.374;2.066;2023-05-19T08:31:20;100953.19;;;20.99;46.24
56042;BME280;48756;41.374;2.066;2023-05-19T08:33:46;100951.25;;;20.66;45.05
56042;BME280;48756;41.374;2.066;2023-05-19T08:36:11;100956.41;;;20.51;43.56
56042;BME280;48756;41.374;2.066;2023-05-19T08:38:37;100945.75;;;20.71;42.29
56042;BME280;48756;41.374;2.066;2023-05-19T08:41:02;100945.25;;;20.99;42.13
56042;BME280;48756;41.374;2.066;2023-05-19T08:43:28;100946.72;;;20.87;42.32
56042;BME280;48756;41.374;2.066;2023-05-19T08:45:53;100943.81;;;21.10;41.11
56042;BME280;48756;41.374;2.066;2023-05-19T08:48:19;100945.94;;;21.56;39.24
56042;BME280;48756;41.374;2.066;2023-05-19T08:50:50;100941.75;;;21.52;38.63
56042;BME280;48756;41.374;2.066;2023-05-19T08:53:24;100942.19;;;21.60;39.02
56042;BME280;48756;41.374;2.066;2023-05-19T08:55:57;100944.94;;;21.58;38.87
56042;BME280;48756;41.374;2.066;2023-05-19T08:58:25;100932.47;;;22.58;36.89
56042;BME280;48756;41.374;2.066;2023-05-19T09:00:52;100936.84;;;22.43;37.07
56042;BME280;48756;41.374;2.066;2023-05-19T09:03:18;100941.44;;;22.08;37.99
56042;BME280;48756;41.374;2.066;2023-05-19T09:05:44;100939.47;;;21.61;36.80
56042;BME280;48756;41.374;2.066;2023-05-19T09:08:10;100941.88;;;21.49;38.69
56042;BME280;48756;41.374;2.066;2023-05-19T09:10:35;100938.63;;;22.27;38.93
56042;BME280;48756;41.374;2.066;2023-05-19T09:13:01;100942.94;;;21.79;37.93
56042;BME280;48756;41.374;2.066;2023-05-19T09:15:26;100955.34;;;22.45;37.48
56042;BME280;48756;41.374;2.066;2023-05-19T09:18:05;100944.88;;;23.05;37.43
56042;BME280;48756;41.374;2.066;2023-05-19T09:20:31;100946.72;;;21.75;49.81
56042;BME280;48756;41.374;2.066;2023-05-19T09:22:57;100958.94;;;21.78;49.18
56042;BME280;48756;41.374;2.066;2023-05-19T09:25:24;100961.94;;;21.37;53.68
56042;BME280;48756;41.374;2.066;2023-05-19T09:27:49;100962.13;;;21.84;53.01
56042;BME280;48756;41.374;2.066;2023-05-19T09:30:15;100953.34;;;21.49;53.62
56042;BME280;48756;41.374;2.066;2023-05-19T09:32:41;100958.19;;;21.76;51.89
56042;BME280;48756;41.374;2.066;2023-05-19T09:35:07;100960.91;;;22.24;50.62
56042;BME280;48756;41.374;2.066;2023-05-19T09:37:32;100955.06;;;22.81;49.85
56042;BME280;48756;41.374;2.066;2023-05-19T09:39:58;100949.47;;;22.87;49.21
56042;BME280;48756;41.374;2.066;2023-05-19T09:42:24;100950.25;;;23.49;46.94
56042;BME280;48756;41.374;2.066;2023-05-19T09:45:00;100949.13;;;23.23;46.14
56042;BME280;48756;41.374;2.066;2023-05-19T09:47:26;100951.06;;;22.58;47.65
56042;BME280;48756;41.374;2.066;2023-05-19T09:49:52;100955.88;;;22.67;49.01
56042;BME280;48756;41.374;2.066;2023-05-19T09:52:17;100958.78;;;22.47;49.29
56042;BME280;48756;41.374;2.066;2023-05-19T09:54:43;100959.47;;;22.50;50.47
56042;BME280;48756;41.374;2.066;2023-05-19T09:57:09;100963.81;;;22.20;50.47
56042;BME280;48756;41.374;2.066;2023-05-19T09:59:34;100962.75;;;22.07;50.49
56042;BME280;48756;41.374;2.066;2023-05-19T10:02:00;100962.34;;;22.30;50.44
56042;BME280;48756;41.374;2.066;2023-05-19T10:04:27;100949.94;;;22.62;50.12
56042;BME280;48756;41.374;2.066;2023-05-19T10:06:53;100953.50;;;23.24;47.94
56042;BME280;48756;41.374;2.066;2023-05-19T10:09:21;100949.13;;;22.93;47.17
56042;BME280;48756;41.374;2.066;2023-05-19T10:11:46;100944.47;;;22.97;47.55
56042;BME280;48756;41.374;2.066;2023-05-19T10:14:12;100954.63;;;23.80;45.37
56042;BME280;48756;41.374;2.066;2023-05-19T10:16:38;100956.41;;;23.94;44.86
56042;BME280;48756;41.374;2.066;2023-05-19T10:19:04;100952.03;;;23.48;45.83
56042;BME280;48756;41.374;2.066;2023-05-19T10:21:31;100949.38;;;23.78;45.25
56042;BME280;48756;41.374;2.066;2023-05-19T10:23:57;100955.38;;;24.10;44.04
56042;BME280;48756;41.374;2.066;2023-05-19T10:26:22;100951.56;;;23.42;45.72
56042;BME280;48756;41.374;2.066;2023-05-19T10:28:50;100945.34;;;23.27;45.60
56042;BME280;48756;41.374;2.066;2023-05-19T10:31:16;100949.59;;;23.00;47.13
56042;BME280;48756;41.374;2.066;2023-05-19T10:33:55;100942.66;;;22.97;45.96
56042;BME280;48756;41.374;2.066;2023-05-19T10:36:45;100946.81;;;22.87;46.69
56042;BME280;48756;41.374;2.066;2023-05-19T10:39:15;100949.00;;;23.99;44.54
56042;BME280;48756;41.374;2.066;2023-05-19T10:41:45;100957.94;;;23.83;44.03
56042;BME280;48756;41.374;2.066;2023-05-19T10:44:23;100953.19;;;24.17;45.02
56042;BME280;48756;41.374;2.066;2023-05-19T10:46:51;100947.19;;;25.37;41.88
56042;BME280;48756;41.374;2.066;2023-05-19T10:49:19;100948.47;;;25.04;41.40
56042;BME280;48756;41.374;2.066;2023-05-19T10:51:46;100940.09;;;25.23;41.86
56042;BME280;48756;41.374;2.066;2023-05-19T10:54:11;100938.13;;;24.86;41.46
56042;BME280;48756;41.374;2.066;2023-05-19T10:56:38;100943.56;;;25.38;40.94
56042;BME280;48756;41.374;2.066;2023-05-19T10:59:06;100943.50;;;25.25;40.86
56042;BME280;48756;41.374;2.066;2023-05-19T11:01:34;100939.41;;;24.39;42.38
56042;BME280;48756;41.374;2.066;2023-05-19T11:04:06;100950.25;;;24.07;43.07
56042;BME280;48756;41.374;2.066;2023-05-19T11:06:33;100941.56;;;23.61;44.36
56042;BME280;48756;41.374;2.066;2023-05-19T11:09:10;100950.31;;;23.63;44.91
56042;BME280;48756;41.374;2.066;2023-05-19T11:11:46;100946.69;;;23.64;44.90
56042;BME280;48756;41.374;2.066;2023-05-19T11:14:13;100958.44;;;23.30;46.06
56042;BME280;48756;41.374;2.066;2023-05-19T11:16:38;100954.44;;;22.93;47.28
56042;BME280;48756;41.374;2.066;2023-05-19T11:19:05;100948.56;;;23.02;47.05
56042;BME280;48756;41.374;2.066;2023-05-19T11:21:47;100957.34;;;22.08;49.17
56042;BME280;48756;41.374;2.066;2023-05-19T11:26:57;100945.69;;;23.21;46.64
56042;BME280;48756;41.374;2.066;2023-05-19T11:29:22;100950.56;;;22.67;46.43
56042;BME280;48756;41.374;2.066;2023-05-19T11:31:48;100942.06;;;22.76;45.21
56042;BME280;48756;41.374;2.066;2023-05-19T11:34:13;100947.28;;;23.39;43.45
56042;BME280;48756;41.374;2.066;2023-05-19T11:36:39;100958.97;;;22.44;46.08
56042;BME280;48756;41.374;2.066;2023-05-19T11:39:05;100963.81;;;21.52;49.74
56042;BME280;48756;41.374;2.066;2023-05-19T11:41:37;100965.41;;;21.72;49.94
56042;BME280;48756;41.374;2.066;2023-05-19T11:44:02;100962.97;;;21.52;50.02
56042;BME280;48756;41.374;2.066;2023-05-19T11:46:27;100962.72;;;21.74;49.52
56042;BME280;48756;41.374;2.066;2023-05-19T11:48:53;100968.00;;;21.74;47.07
56042;BME280;48756;41.374;2.066;2023-05-19T11:51:19;100970.16;;;21.14;49.66
56042;BME280;48756;41.374;2.066;2023-05-19T11:53:47;100978.63;;;21.20;49.97
56042;BME280;48756;41.374;2.066;2023-05-19T11:56:13;100971.41;;;21.24;48.77
56042;BME280;48756;41.374;2.066;2023-05-19T11:58:39;100966.13;;;21.24;48.09
56042;BME280;48756;41.374;2.066;2023-05-19T12:01:05;100974.44;;;21.16;48.43
56042;BME280;48756;41.374;2.066;2023-05-19T12:03:30;100973.56;;;21.16;49.02
56042;BME280;48756;41.374;2.066;2023-05-19T12:05:56;100977.38;;;21.29;49.62
56042;BME280;48756;41.374;2.066;2023-05-19T12:08:22;100976.75;;;21.05;50.54
56042;BME280;48756;41.374;2.066;2023-05-19T12:10:48;100975.31;;;20.98;47.97
56042;BME280;48756;41.374;2.066;2023-05-19T12:13:15;100997.41;;;19.82;52.13
56042;BME280;48756;41.374;2.066;2023-05-19T12:15:41;100995.16;;;19.94;52.08
56042;BME280;48756;41.374;2.066;2023-05-19T12:18:06;101007.16;;;19.18;54.63
56042;BME280;48756;41.374;2.066;2023-05-19T12:20:32;101014.41;;;19.13;59.58
56042;BME280;48756;41.374;2.066;2023-05-19T12:22:59;101015.94;;;19.18;62.31
56042;BME280;48756;41.374;2.066;2023-05-19T12:25:25;101025.81;;;18.21;66.95
56042;BME280;48756;41.374;2.066;2023-05-19T12:27:51;101012.22;;;17.57;75.16
56042;BME280;48756;41.374;2.066;2023-05-19T12:30:23;101005.97;;;17.60;79.91
56042;BME280;48756;41.374;2.066;2023-05-19T12:32:49;100995.88;;;18.22;80.58
56042;BME280;48756;41.374;2.066;2023-05-19T12:35:15;100977.09;;;18.53;81.38
56042;BME280;48756;41.374;2.066;2023-05-19T12:37:41;100951.22;;;18.41;74.10
56042;BME280;48756;41.374;2.066;2023-05-19T12:40:07;100948.16;;;17.82;73.60
56042;BME280;48756;41.374;2.066;2023-05-19T12:42:33;100945.31;;;18.11;75.99
56042;BME280;48756;41.374;2.066;2023-05-19T12:45:00;100943.16;;;18.44;69.96
56042;BME280;48756;41.374;2.066;2023-05-19T12:47:30;100940.56;;;19.10;78.32
56042;BME280;48756;41.374;2.066;2023-05-19T12:52:24;100939.81;;;18.86;77.12
56042;BME280;48756;41.374;2.066;2023-05-19T12:54:56;100942.50;;;18.84;71.96
56042;BME280;48756;41.374;2.066;2023-05-19T12:57:22;100941.50;;;18.87;66.14
56042;BME280;48756;41.374;2.066;2023-05-19T12:59:47;100930.56;;;18.74;63.81
56042;BME280;48756;41.374;2.066;2023-05-19T13:02:13;100924.69;;;18.67;63.73
56042;BME280;48756;41.374;2.066;2023-05-19T13:04:39;100930.56;;;18.74;62.74
56042;BME280;48756;41.374;2.066;2023-05-19T13:07:04;100933.59;;;18.65;62.29
56042;BME280;48756;41.374;2.066;2023-05-19T13:09:30;100934.53;;;19.28;59.53
56042;BME280;48756;41.374;2.066;2023-05-19T13:11:59;100935.88;;;19.58;65.40